Latest Weather Observations for Friendly Beaches

IDT60801

Issued at 4:01 pm EST Sunday 26 April 2015 (issued every 30 minutes, with the page automatically refreshed every 10 minutes)

About weather observations | Map of weather stations | Latest weather observations for TAS | Other Formats
Station Details ID: 092114 Name: FRIENDLY BEACHES Lat: -42.00 Lon: 148.28 Height: 55.0 m
Data from the previous 72 hours. | See also: Recent months at Friendly Beaches
Date/Time
EST
Temp
°C
App
Temp
°C
Dew
Point
Rel
Hum
%
Delta-T
°C
Wind Press
QNH
hPa
Press
MSL
hPa
Rain
since 9 am
mm
Dir
 
Spd
km/h
Gust
km/h
Spd
kts
Gust
kts
26/04:00pm 14.3 10.6 4.6 52 4.5 SW 13 22 7 12 1011.2 1011.2 0.0
26/03:30pm 14.6 10.4 4.0 49 4.9 WSW 15 28 8 15 1011.0 1011.0 0.0
26/03:00pm 14.7 11.0 4.4 50 4.8 SW 13 24 7 13 1011.0 1011.0 0.0
26/02:30pm 14.6 10.1 4.3 50 4.8 WSW 17 32 9 17 1011.2 1011.2 0.0
26/02:00pm 15.0 11.8 5.2 52 4.6 SW 11 20 6 11 1011.3 1011.3 0.0
26/01:30pm 14.0 10.3 4.6 53 4.4 SSW 13 20 7 11 1011.3 1011.3 0.0
26/01:00pm 14.0 11.2 5.1 55 4.2 SSW 9 17 5 9 1011.6 1011.6 0.0
26/12:30pm 12.8 9.2 4.8 58 3.7 SSW 13 19 7 10 1011.9 1011.9 0.0
26/12:00pm 12.0 9.1 4.7 61 3.3 SW 9 17 5 9 1012.3 1012.3 0.0
26/11:30am 12.2 8.5 4.7 60 3.4 SW 13 26 7 14 1012.7 1012.7 0.0
26/11:00am 11.5 7.5 4.7 63 3.1 SW 15 24 8 13 1012.8 1012.8 0.0
26/10:30am 12.2 7.8 4.7 60 3.4 SW 17 28 9 15 1012.9 1012.9 0.0
26/10:00am 11.4 7.2 3.7 59 3.4 SW 15 26 8 14 1013.1 1013.1 0.0
26/09:30am 11.2 7.4 4.0 61 3.2 WSW 13 26 7 14 1013.2 1013.2 0.0
26/09:00am 10.2 6.4 4.1 66 2.7 WSW 13 20 7 11 1013.2 1013.2 0.2
26/08:30am 9.5 5.3 3.7 67 2.5 WSW 15 26 8 14 1013.3 1013.3 0.2
26/08:00am 8.8 5.4 4.2 73 2.0 WSW 11 17 6 9 1013.2 1013.2 0.2
26/07:30am 9.0 5.7 4.8 75 1.9 WSW 11 20 6 11 1013.0 1013.0 0.2
26/07:00am 9.0 6.4 6.1 82 1.3 WSW 9 15 5 8 1012.6 1012.6 0.2
26/06:30am 8.6 6.0 5.9 83 1.2 WSW 9 15 5 8 1012.1 1012.1 0.2
26/06:00am 8.6 5.6 6.2 85 1.1 SW 11 19 6 10 1012.0 1012.0 0.2
26/05:30am 8.8 5.4 6.1 83 1.2 WSW 13 19 7 10 1011.8 1011.8 0.2
26/05:00am 9.1 6.1 6.2 82 1.3 WSW 11 20 6 11 1011.7 1011.7 0.2
26/04:30am 9.3 7.3 6.4 82 1.3 W 6 11 3 6 1011.9 1011.9 0.2
26/04:00am 9.8 7.8 6.9 82 1.4 NW 7 11 4 6 1011.9 1011.9 0.2
26/03:30am 9.8 7.8 7.1 83 1.3 W 7 11 4 6 1011.8 1011.8 0.2
26/03:00am 9.8 7.3 6.5 80 1.5 SW 9 13 5 7 1011.7 1011.7 0.2
26/02:30am 9.7 7.2 6.4 80 1.5 WSW 9 13 5 7 1012.0 1012.0 0.2
26/02:00am 9.7 7.6 6.8 82 1.4 W 7 13 4 7 1012.3 1012.3 0.2
26/01:30am 10.0 6.7 6.3 78 1.7 SW 13 20 7 11 1012.5 1012.5 0.2
26/01:00am 10.2 7.3 6.4 77 1.8 WSW 11 19 6 10 1012.4 1012.4 0.2
26/12:30am 10.2 7.7 6.7 79 1.6 WSW 9 15 5 8 1012.3 1012.3 0.2
26/12:00am 10.1 7.9 7.9 86 1.1 WSW 9 15 5 8 1012.2 1012.2 0.2
 
Date/Time
EST
Temp
°C
App
Temp
°C
Dew
Point
Rel
Hum
%
Delta-T
°C
Wind Press
QNH
hPa
Press
MSL
hPa
Rain
since 9 am
mm
Dir
 
Spd
km/h
Gust
km/h
Spd
kts
Gust
kts
25/11:30pm 10.1 7.6 8.0 87 1.0 WSW 11 15 6 8 1012.2 1012.2 0.2
25/11:00pm 10.6 8.6 7.3 80 1.6 SW 7 15 4 8 1012.4 1012.4 0.2
25/10:30pm 10.9 8.2 7.4 79 1.7 SW 11 19 6 10 1012.4 1012.4 0.2
25/10:00pm 11.0 9.1 7.7 80 1.6 WSW 7 11 4 6 1012.6 1012.6 0.2
25/09:30pm 11.1 8.9 7.8 80 1.6 WSW 9 19 5 10 1012.4 1012.4 0.2
25/09:00pm 11.1 8.9 7.8 80 1.6 SW 9 15 5 8 1012.4 1012.4 0.2
25/08:30pm 10.8 9.2 7.9 82 1.4 SW 6 9 3 5 1012.4 1012.4 0.2
25/08:00pm 10.8 8.7 8.2 84 1.3 SSW 9 13 5 7 1012.4 1012.4 0.2
25/07:30pm 11.1 8.2 8.3 83 1.4 SSW 13 22 7 12 1012.3 1012.3 0.2
25/07:00pm 11.3 9.5 7.8 79 1.7 SSW 7 13 4 7 1012.0 1012.0 0.2
25/06:30pm 11.2 9.4 8.1 81 1.5 SSW 7 11 4 6 1011.8 1011.8 0.2
25/06:00pm 11.4 9.2 7.9 79 1.7 SW 9 15 5 8 1011.5 1011.5 0.2
25/05:30pm 11.3 10.5 8.3 82 1.5 SW 2 4 1 2 1011.1 1011.1 0.2
25/05:00pm 11.8 10.7 8.3 79 1.7 SSW 4 6 2 3 1010.8 1010.8 0.2
25/04:30pm 12.1 9.9 7.8 75 2.1 SSW 9 15 5 8 1010.7 1010.7 0.2
25/04:00pm 12.5 11.4 8.6 77 1.9 SW 4 9 2 5 1010.5 1010.5 0.2
25/03:30pm 12.5 10.4 8.4 76 2.0 S 9 15 5 8 1010.3 1010.3 0.2
25/03:00pm 12.7 9.5 8.4 75 2.1 S 15 22 8 12 1010.0 1010.0 0.2
25/02:30pm 12.9 9.4 8.8 76 2.1 S 17 24 9 13 1009.8 1009.8 0.2
25/02:00pm 12.8 9.3 8.9 77 2.0 S 17 28 9 15 1009.7 1009.7 0.2
25/01:30pm 13.0 9.7 9.4 79 1.8 SSE 17 24 9 13 1009.6 1009.6 0.2
25/01:00pm 13.1 10.5 9.5 79 1.8 S 13 22 7 12 1009.5 1009.5 0.2
25/12:30pm 12.3 10.7 10.2 87 1.1 SSW 9 19 5 10 1009.6 1009.6 0.2
25/12:00pm 12.0 9.0 10.7 92 0.7 S 17 30 9 16 1009.6 1009.6 0.2
25/11:30am 12.0 9.9 11.1 94 0.5 SSW 13 20 7 11 1009.5 1009.5 0.2
25/11:00am 12.3 10.2 11.2 93 0.6 SSW 13 22 7 12 1009.4 1009.4 0.0
25/10:30am 12.2 9.6 10.8 91 0.7 SW 15 20 8 11 1009.2 1009.2 0.0
25/10:00am 12.7 10.6 9.9 83 1.4 SW 11 20 6 11 1009.2 1009.2 0.0
25/09:30am 12.4 9.4 9.2 81 1.6 SW 15 26 8 14 1008.8 1008.8 0.0
25/09:00am 12.1 9.1 9.1 82 1.5 SW 15 24 8 13 1008.7 1008.7 12.2
25/08:30am 11.7 9.6 9.6 87 1.1 WSW 11 17 6 9 1008.4 1008.4 12.2
25/08:00am 11.5 10.1 9.6 88 1.0 WSW 7 13 4 7 1008.1 1008.1 12.2
25/07:30am 11.5 10.0 9.2 86 1.2 WSW 7 17 4 9 1007.7 1007.6 12.2
25/07:00am 11.6 9.8 9.3 86 1.2 SW 9 19 5 10 1007.3 1007.2 12.2
25/06:30am 11.3 9.1 9.4 88 1.0 SSW 11 22 6 12 1006.8 1006.7 12.2
25/06:00am 11.3 8.8 9.6 89 0.9 SSW 13 22 7 12 1006.3 1006.2 12.2
25/05:30am 11.3 8.8 9.7 90 0.8 WSW 13 20 7 11 1005.9 1005.8 12.0
25/05:00am 11.0 9.3 9.8 92 0.6 WSW 9 20 5 11 1005.7 1005.6 12.0
25/04:30am 11.3 9.6 10.0 92 0.7 WSW 9 13 5 7 1005.3 1005.2 12.0
25/04:00am 11.4 9.0 10.1 92 0.7 SW 13 24 7 13 1004.7 1004.6 12.0
25/03:30am 11.6 9.7 10.5 93 0.6 WSW 11 19 6 10 1004.6 1004.5 12.0
25/03:00am 11.5 10.3 10.4 93 0.6 SW 7 17 4 9 1004.6 1004.5 12.0
25/02:30am 11.9 11.1 11.1 95 0.4 W 6 7 3 4 1004.5 1004.4 12.0
25/02:00am 12.0 11.6 11.2 95 0.4 W 4 7 2 4 1004.4 1004.3 12.0
25/01:30am 12.0 11.2 11.2 95 0.4 WSW 6 13 3 7 1004.2 1004.1 12.0
25/01:00am 12.1 11.4 11.5 96 0.3 SW 6 9 3 5 1004.1 1004.0 12.0
25/12:30am 12.4 11.3 12.1 98 0.2 SSW 9 20 5 11 1003.9 1003.8 12.0
25/12:00am 12.5 12.4 12.2 98 0.2 W 4 7 2 4 1003.8 1003.7 12.0
 
Date/Time
EST
Temp
°C
App
Temp
°C
Dew
Point
Rel
Hum
%
Delta-T
°C
Wind Press
QNH
hPa
Press
MSL
hPa
Rain
since 9 am
mm
Dir
 
Spd
km/h
Gust
km/h
Spd
kts
Gust
kts
24/11:30pm 12.5 11.5 12.2 98 0.2 W 9 15 5 8 1003.7 1003.6 12.0
24/11:00pm 12.2 11.5 11.9 98 0.2 W 7 11 4 6 1003.4 1003.3 12.0
24/10:30pm 12.1 11.3 11.8 98 0.2 W 7 11 4 6 1003.3 1003.2 11.6
24/10:00pm 12.1 11.0 11.8 98 0.2 W 9 11 5 6 1003.3 1003.2 11.0
24/09:30pm 12.1 11.3 11.6 97 0.3 WNW 7 11 4 6 1003.3 1003.2 10.4
24/09:00pm 12.2 11.0 11.7 97 0.3 WNW 9 11 5 6 1003.1 1003.0 9.8
24/08:30pm 12.2 11.4 11.7 97 0.3 WNW 7 9 4 5 1003.1 1003.0 9.0
24/08:00pm 12.3 11.5 11.8 97 0.3 WNW 7 9 4 5 1003.0 1002.9 8.0
24/07:30pm 12.4 11.9 11.9 97 0.3 WNW 6 6 3 3 1002.8 1002.7 7.2
24/07:00pm 12.4 11.9 11.9 97 0.3 W 6 7 3 4 1002.8 1002.7 6.4
24/06:30pm 12.6 12.1 12.1 97 0.3 WNW 6 6 3 3 1002.5 1002.4 6.2
24/06:00pm 12.6 12.1 12.0 96 0.3 WSW 6 9 3 5 1002.3 1002.2 6.0
24/05:30pm 12.7 12.5 11.9 95 0.4 W 4 7 2 4 1002.0 1001.9 5.4
24/05:00pm 12.8 12.7 12.0 95 0.4 SW 4 7 2 4 1001.8 1001.7 4.6
24/04:30pm 12.9 12.8 12.1 95 0.4 SW 4 7 2 4 1001.6 1001.5 4.2
24/04:00pm 13.2 13.6 12.4 95 0.4 WSW 2 4 1 2 1001.7 1001.6 3.8
24/03:30pm 13.3 13.3 12.4 94 0.5 WSW 4 6 2 3 1001.9 1001.8 3.0
24/03:00pm 13.4 13.8 12.5 94 0.5 SW 2 4 1 2 1001.9 1001.8 2.8
24/02:30pm 13.5 13.0 12.6 94 0.5 WSW 7 11 4 6 1002.0 1001.9 2.8
24/02:00pm 13.8 13.6 12.9 94 0.5 WSW 6 13 3 7 1002.1 1002.0 2.6
24/01:30pm 13.8 13.6 12.9 94 0.5 WSW 6 11 3 6 1002.1 1002.0 2.4
24/01:00pm 13.3 12.7 12.4 94 0.5 WSW 7 15 4 8 1002.6 1002.5 2.4
24/12:30pm 12.9 11.4 12.0 94 0.5 WSW 11 20 6 11 1002.9 1002.8 2.4
24/12:00pm 12.9 11.5 12.3 96 0.3 WSW 11 19 6 10 1003.3 1003.2 2.2
24/11:30am 12.8 11.4 12.3 97 0.3 WSW 11 19 6 10 1003.7 1003.6 2.2
24/11:00am 12.6 11.5 12.1 97 0.3 W 9 17 5 9 1004.0 1003.9 2.0
24/10:30am 12.6 11.6 12.3 98 0.2 W 9 13 5 7 1004.3 1004.2 1.6
24/10:00am 12.4 11.3 12.1 98 0.2 W 9 13 5 7 1004.4 1004.3 1.4
24/09:30am 12.3 11.2 12.0 98 0.2 W 9 17 5 9 1004.7 1004.6 0.6
24/09:00am 12.2 11.1 11.9 98 0.2 W 9 17 5 9 1005.1 1005.0 5.6
24/08:30am 12.1 10.6 11.8 98 0.2 W 11 19 6 10 1005.2 1005.1 5.2
24/08:00am 11.9 10.3 11.6 98 0.2 W 11 17 6 9 1005.4 1005.3 5.2
24/07:30am 11.8 10.2 11.5 98 0.2 W 11 17 6 9 1005.6 1005.5 5.0
24/07:00am 11.7 10.1 11.4 98 0.2 W 11 19 6 10 1005.6 1005.5 4.4
24/06:30am 11.7 10.1 11.4 98 0.2 W 11 17 6 9 1005.7 1005.6 3.8
24/06:00am 11.5 10.2 11.2 98 0.2 W 9 13 5 7 1005.8 1005.7 3.2
24/05:30am 11.7 10.4 11.4 98 0.2 W 9 13 5 7 1006.0 1005.9 2.8
24/05:00am 11.6 10.7 11.3 98 0.2 W 7 11 4 6 1006.2 1006.1 2.8
24/04:30am 11.7 11.0 11.4 98 0.2 W 6 6 3 3 1006.5 1006.4 2.6
24/04:00am 11.6 10.9 11.3 98 0.2 W 6 9 3 5 1006.7 1006.6 2.6
24/03:30am 11.5 10.7 11.2 98 0.2 W 6 9 3 5 1007.0 1006.9 2.6
24/03:00am 11.6 10.7 11.3 98 0.2 WNW 7 9 4 5 1007.4 1007.3 2.6
24/02:30am 11.5 10.2 11.2 98 0.2 W 9 13 5 7 1007.7 1007.6 2.6
24/02:00am 11.1 9.6 10.6 97 0.3 W 9 13 5 7 1008.1 1008.1 2.6
24/01:30am 11.3 9.5 10.8 97 0.3 WSW 11 15 6 8 1008.6 1008.6 2.6
24/01:00am 11.5 9.7 11.0 97 0.3 W 11 15 6 8 1009.5 1009.5 2.6
24/12:30am 11.6 9.9 11.1 97 0.3 W 11 17 6 9 1010.1 1010.1 2.4
24/12:00am 11.7 10.0 11.2 97 0.3 W 11 17 6 9 1010.6 1010.6 2.4
 
Date/Time
EST
Temp
°C
App
Temp
°C
Dew
Point
Rel
Hum
%
Delta-T
°C
Wind Press
QNH
hPa
Press
MSL
hPa
Rain
since 9 am
mm
Dir
 
Spd
km/h
Gust
km/h
Spd
kts
Gust
kts
23/11:30pm 11.7 10.0 11.2 97 0.3 W 11 17 6 9 1011.2 1011.2 2.4
23/11:00pm 11.7 9.6 11.1 96 0.3 W 13 19 7 10 1011.6 1011.6 2.4
23/10:30pm 12.0 10.4 11.4 96 0.3 W 11 15 6 8 1012.1 1012.1 2.4
23/10:00pm 12.2 11.0 11.6 96 0.3 W 9 13 5 7 1012.5 1012.5 2.4
23/09:30pm 12.3 11.4 11.5 95 0.4 W 7 9 4 5 1013.1 1013.1 2.4
23/09:00pm 12.5 11.7 11.1 91 0.7 SW 6 7 3 4 1013.4 1013.4 2.0
23/08:30pm 13.1 12.8 11.3 89 1.0 SSW 4 4 2 2 1013.7 1013.7 0.4
23/08:00pm 13.5 12.9 10.5 82 1.6 SSW 4 6 2 3 1014.2 1014.2 0.0
23/07:30pm 13.7 12.7 10.3 80 1.8 S 6 9 3 5 1014.5 1014.5 0.0
23/07:00pm 13.7 12.7 10.3 80 1.8 SW 6 11 3 6 1014.8 1014.8 0.0
23/06:30pm 13.9 12.9 10.3 79 1.9 SSE 6 9 3 5 1015.0 1015.0 0.0
23/06:00pm 13.9 13.2 10.1 78 2.0 SSW 4 6 2 3 1015.2 1015.2 0.0
23/05:30pm 14.3 13.2 10.1 76 2.2 S 6 9 3 5 1015.3 1015.3 0.0
23/05:00pm 14.6 13.1 10.4 76 2.2 SE 9 11 5 6 1015.2 1015.2 0.0
23/04:30pm 14.8 12.7 9.8 72 2.6 SE 11 17 6 9 1015.6 1015.6 0.0

Other Formats:

Comma delimited format used in spreadsheet applications
http://www.bom.gov.au/fwo/IDT60801/IDT60801.94987.axf

JavaScript Object Notation format (JSON) in row-major order
http://www.bom.gov.au/fwo/IDT60801/IDT60801.94987.json